Estación de Morza
Ultimos registro cada 15 minutos 48
| N° | Estación | Fecha / Hora | Temperatura | Humedad | Lluvia | Velocidad | Dirección | Radiación | Presion |
| 48 | Morza | 08-05-2026 11:45 | 13,9 | 75 | 0 | 0 | 17 | 468 | 1019,6 |
| 47 | Morza | 08-05-2026 11:30 | 13,4 | 77 | 0 | 0,4 | 38 | 452 | 1019,6 |
| 46 | Morza | 08-05-2026 11:15 | 12,8 | 78 | 0 | 0,9 | 290 | 436 | 1019,9 |
| 45 | Morza | 08-05-2026 11:00 | 12,2 | 81 | 0 | 0,4 | 20 | 503 | 1020 |
| 44 | Morza | 08-05-2026 10:45 | 11,8 | 84 | 0 | 0,9 | 318 | 404 | 1020,2 |
| 43 | Morza | 08-05-2026 10:30 | 10,7 | 87 | 0 | 0 | 55 | 373 | 1020,5 |
| 42 | Morza | 08-05-2026 10:15 | 9,6 | 91 | 0 | 0,9 | 5 | 343 | 1020,8 |
| 41 | Morza | 08-05-2026 10:00 | 8,8 | 93 | 0 | 0,9 | 300 | 311 | 1020,9 |
| 40 | Morza | 08-05-2026 09:45 | 8,1 | 95 | 0 | 0,4 | 292 | 264 | 1020,9 |
| 39 | Morza | 08-05-2026 09:30 | 7,3 | 96 | 0 | 0,9 | 282 | 209 | 1021 |
| 38 | Morza | 08-05-2026 09:15 | 7 | 96 | 0 | 0,4 | 356 | 190 | 1020,9 |
| 37 | Morza | 08-05-2026 09:00 | 6,3 | 96 | 0 | 0 | 21 | 172 | 1020,6 |
| 36 | Morza | 08-05-2026 08:45 | 5,7 | 97 | 0 | 0,4 | 41 | 135 | 1020,4 |
| 35 | Morza | 08-05-2026 08:30 | 5,3 | 97 | 0 | 0 | 78 | 98 | 1020,1 |
| 34 | Morza | 08-05-2026 08:15 | 3,8 | 97 | 0 | 0,4 | 77 | 70 | 1020,2 |
| 33 | Morza | 08-05-2026 08:00 | 2,7 | 96 | 0 | 0 | 206 | 33 | 1019,7 |
| 32 | Morza | 08-05-2026 07:45 | 1,9 | 96 | 0 | 0 | 204 | 9 | 1019,6 |
| 31 | Morza | 08-05-2026 07:30 | 1,7 | 95 | 0 | 0 | 182 | 0 | 1019,8 |
| 30 | Morza | 08-05-2026 07:15 | 1,7 | 95 | 0 | 0 | 182 | 0 | 1019,7 |
| 29 | Morza | 08-05-2026 07:00 | 1,8 | 95 | 0 | 0 | 182 | 0 | 1019,9 |
| 28 | Morza | 08-05-2026 06:45 | 2,1 | 95 | 0 | 0 | 182 | 0 | 1020 |
| 27 | Morza | 08-05-2026 06:30 | 2,2 | 95 | 0 | 0 | 186 | 0 | 1020,3 |
| 26 | Morza | 08-05-2026 06:15 | 2,2 | 95 | 0 | 0 | 186 | 0 | 1020,4 |
| 25 | Morza | 08-05-2026 06:00 | 2,4 | 94 | 0 | 0 | 186 | 0 | 1020,5 |
| 24 | Morza | 08-05-2026 05:45 | 2,7 | 95 | 0 | 0 | 186 | 0 | 1020,6 |
| 23 | Morza | 08-05-2026 05:30 | 2,9 | 95 | 0 | 0 | 186 | 0 | 1020,6 |
| 22 | Morza | 08-05-2026 05:15 | 3,2 | 95 | 0 | 0 | 206 | 0 | 1020,6 |
| 21 | Morza | 08-05-2026 05:00 | 3,1 | 95 | 0 | 0 | 206 | 0 | 1020,6 |
| 20 | Morza | 08-05-2026 04:45 | 2,7 | 95 | 0 | 0 | 206 | 0 | 1020,4 |
| 19 | Morza | 08-05-2026 04:30 | 2,7 | 94 | 0 | 0,4 | 206 | 0 | 1020,4 |
| 18 | Morza | 08-05-2026 04:15 | 2,9 | 95 | 0,2 | 0 | 149 | 0 | 1020 |
| 17 | Morza | 08-05-2026 04:00 | 2,8 | 94 | 0 | 0 | 211 | 0 | 1020,3 |
| 16 | Morza | 08-05-2026 03:45 | 3,1 | 94 | 0 | 0 | 211 | 0 | 1020,8 |
| 15 | Morza | 08-05-2026 03:30 | 3,2 | 94 | 0 | 0 | 211 | 0 | 1021,1 |
| 14 | Morza | 08-05-2026 03:15 | 3,2 | 92 | 0 | 0 | 211 | 0 | 1021,2 |
| 13 | Morza | 08-05-2026 03:00 | 3,8 | 94 | 0 | 0 | 211 | 0 | 1021,4 |
| 12 | Morza | 08-05-2026 02:45 | 3,9 | 93 | 0 | 0 | 211 | 0 | 1021,5 |
| 11 | Morza | 08-05-2026 02:30 | 4,2 | 93 | 0 | 0 | 211 | 0 | 1021,2 |
| 10 | Morza | 08-05-2026 02:15 | 4,7 | 94 | 0 | 0 | 211 | 0 | 1021,6 |
| 9 | Morza | 08-05-2026 02:00 | 4,7 | 93 | 0 | 0 | 298 | 0 | 1021,5 |
| 8 | Morza | 08-05-2026 01:45 | 4,8 | 92 | 0 | 0 | 298 | 0 | 1021,7 |
| 7 | Morza | 08-05-2026 01:30 | 5,3 | 91 | 0 | 0,4 | 298 | 0 | 1022 |
| 6 | Morza | 08-05-2026 01:15 | 5,9 | 91 | 0 | 0 | 298 | 0 | 1021,9 |
| 5 | Morza | 08-05-2026 01:00 | 6,3 | 90 | 0 | 0 | 298 | 0 | 1022,1 |
| 4 | Morza | 08-05-2026 00:45 | 7 | 90 | 0 | 0 | 298 | 0 | 1022,3 |
| 3 | Morza | 08-05-2026 00:30 | 7,5 | 90 | 0 | 0 | 298 | 0 | 1022,5 |
| 2 | Morza | 08-05-2026 00:15 | 7,9 | 90 | 0 | 0 | 298 | 0 | 1022,7 |
| 1 | Morza | 08-05-2026 00:00 | 8,2 | 89 | 0 | 0 | 80 | 0 | 1022,6 |